Flight Track Log - Related Links

Times and Time Zones

All times are in EDT time to prevent confusion due to time zone crossing. See the UAL495 flight status page for this flight to view local times or setup timezone preferences in your user account.

Time Position Orientation Groundspeed Altitude Reporting Facility
EDT Latitude Longitude Course Direction KTS MPH feet Rate Location/Type
Wed 12:42:42 PM 39.8833 -104.5667 85° East 213 245 7,200  Level Denver TRACON
Wed 12:43:42 PM 39.8833 -104.4833 90° East 250 288 9,500 2,176 Climbing Denver TRACON
Wed 12:44:13 PM 39.8747 -104.4328 102° East 249 287 10,500 2,323 Climbing Denver Center
Wed 12:45:15 PM 39.8719 -104.3217 92° East 280 322 13,100 2,323 Climbing Denver Center
Wed 12:46:17 PM 39.8725 -104.2161 90° East 291 335 15,300 2,177 Climbing Denver Center
Wed 12:47:00 PM 39.8833 -103.7236 90° East  Level FlightAware Approximate
Wed 12:47:19 PM 39.8714 -104.0892 91° East 323 372 17,600  Level Denver Center
Wed 12:48:00 PM 39.8918 -103.5661 85° East  Level FlightAware Approximate
Wed 12:48:21 PM 39.8736 -103.9644 89° East 348 400 19,400  Level Denver Center
Wed 12:49:23 PM 39.8758 -103.8264 89° East 355 409 21,600 1,887 Climbing Denver Center
Wed 12:50:25 PM 39.8883 -103.6894 83° East 357 411 23,300 1,597 Climbing Denver Center
Wed 12:51:27 PM 39.9042 -103.5589 81° East 376 433 24,900 1,645 Climbing Denver Center
Wed 12:52:29 PM 39.9197 -103.4122 82° East 384 442 26,700 1,306 Climbing Denver Center
Wed 12:53:31 PM 39.9356 -103.2769 81° East 393 452 27,600 677 Climbing Denver Center
Wed 12:54:33 PM 39.9536 -103.1064 82° East 426 490 28,100 629 Climbing Denver Center
Wed 12:55:35 PM 39.9708 -102.9539 82° East 442 509 28,900 968 Climbing Denver Center
Wed 12:56:37 PM 39.9903 -102.7714 82° East 455 524 30,100 1,258 Climbing Denver Center
Wed 12:57:39 PM 40.0083 -102.6139 81° East 460 529 31,500 1,355 Climbing Denver Center
Wed 12:58:41 PM 40.0272 -102.4322 82° East 455 524 32,900 1,113 Climbing Denver Center
Wed 12:59:43 PM 40.0444 -102.2783 82° East 449 517 33,800 823 Climbing Denver Center
Wed 01:00:45 PM 40.0631 -102.0939 82° East 458 527 34,600 581 Climbing Denver Center
Wed 01:01:47 PM 40.0786 -101.9358 83° East 459 528 35,000 194 Climbing Denver Center
Wed 01:02:49 PM 40.0967 -101.7486 83° East 464 534 35,000  Level Denver Center
Wed 01:03:51 PM 40.1122 -101.5858 83° East 472 543 35,000  Level Denver Center
Wed 01:04:53 PM 40.1281 -101.4236 83° East 471 542 35,000  Level Denver Center
Wed 01:05:55 PM 40.1453 -101.2339 83° East 473 544 35,000  Level Denver Center
Wed 01:06:57 PM 40.1600 -101.0725 83° East 471 542 35,000  Level Denver Center
Wed 01:07:59 PM 40.1778 -100.8839 83° East 471 542 35,000  Level Denver Center
Wed 01:09:02 PM 40.1928 -100.7222 83° East 471 542 35,000  Level Denver Center
Wed 01:10:04 PM 40.2061 -100.5331 85° East 471 542 35,000  Level Denver Center
Wed 01:11:06 PM 40.2075 -100.3711 89° East 468 539 35,000  Level Denver Center
Wed 01:12:08 PM 40.2106 -100.1806 89° East 472 543 35,000  Level Denver Center
Wed 01:13:10 PM 40.2128 -100.0186 89° East 469 540 35,000  Level Denver Center
Wed 01:14:12 PM 40.2150 -99.8256 89° East 474 545 35,000  Level Denver Center
Wed 01:15:14 PM 40.2169 -99.6533 89° East 475 547 35,000  Level Denver Center
Wed 01:16:16 PM 40.2183 -99.4806 89° East 476 548 35,000  Level Denver Center
Wed 01:17:18 PM 40.2206 -99.3047 89° East 482 555 35,000  Level Denver Center
Wed 01:18:20 PM 40.2211 -99.0936 90° East 486 559 35,000  Level Denver Center
Wed 01:19:22 PM 40.2225 -98.9164 89° East 489 563 35,000  Level Denver Center
Wed 01:20:15 PM 40.2225 -98.7589 90° East 486 559 35,000  Level Minneapolis Center
Wed 01:21:17 PM 40.2231 -98.5806 90° East 488 562 35,000  Level Minneapolis Center
Wed 01:22:19 PM 40.2225 -98.4025 90° East 490 564 35,000  Level Minneapolis Center
Wed 01:23:21 PM 40.2219 -98.2250 90° East 490 564 35,000  Level Minneapolis Center
Wed 01:24:23 PM 40.2225 -98.0481 90° East 490 564 35,000  Level Minneapolis Center
Wed 01:25:25 PM 40.2208 -97.8706 91° East 489 563 35,000  Level Minneapolis Center
Wed 01:26:27 PM 40.2200 -97.6600 90° East 487 560 35,000  Level Minneapolis Center
Wed 01:27:29 PM 40.2183 -97.4825 91° East 487 560 35,000  Level Minneapolis Center
Wed 01:28:31 PM 40.2175 -97.3069 90° East 486 559 35,000  Level Minneapolis Center
Wed 01:29:33 PM 40.2153 -97.1306 91° East 487 560 35,000  Level Minneapolis Center
Wed 01:30:35 PM 40.2119 -96.9544 91° East 487 560 35,000  Level Minneapolis Center
Wed 01:31:37 PM 40.2083 -96.7750 91° East 490 564 35,000  Level Minneapolis Center
Wed 01:32:39 PM 40.2056 -96.5642 91° East 487 560 35,000  Level Minneapolis Center
Wed 01:33:41 PM 40.2031 -96.3889 91° East 485 558 35,000  Level Minneapolis Center
Wed 01:34:43 PM 40.2003 -96.2125 91° East 487 560 35,000  Level Minneapolis Center
Wed 01:35:45 PM 40.1992 -96.0364 90° East 487 560 35,000  Level Minneapolis Center
Wed 01:36:47 PM 40.2000 -95.8586 90° East 490 564 35,000  Level Minneapolis Center
Wed 01:37:49 PM 40.1989 -95.6803 90° East 491 565 35,000  Level Minneapolis Center
Wed 01:38:51 PM 40.1967 -95.4667 91° East 491 565 35,000  Level Minneapolis Center
Wed 01:39:53 PM 40.1956 -95.2892 90° East 490 564 35,000  Level Minneapolis Center
Wed 01:40:55 PM 40.1928 -95.1111 91° East 491 565 35,000  Level Minneapolis Center
Wed 01:41:57 PM 40.1906 -94.9319 91° East 493 567 35,000  Level Minneapolis Center
Wed 01:42:59 PM 40.1872 -94.7544 91° East 492 566 35,000  Level Minneapolis Center
Wed 01:44:01 PM 40.1836 -94.5381 91° East 493 567 35,000  Level Minneapolis Center
Wed 01:45:02 PM 40.1800 -94.3614 91° East 502 578 35,000  Level Kansas City Center
Wed 01:46:04 PM 40.1769 -94.1889 91° East 499 574 35,000  Level Kansas City Center
Wed 01:47:06 PM 40.1706 -93.9914 92° East 505 581 35,000  Level Kansas City Center
Wed 01:48:08 PM 40.1667 -93.8117 92° East 504 580 35,000  Level Kansas City Center
Wed 01:49:10 PM 40.1578 -93.6333 94° East 498 573 35,000  Level Kansas City Center
Wed 01:50:12 PM 40.1417 -93.4167 95° East 502 578 35,000  Level Kansas City Center
Wed 01:51:14 PM 40.1297 -93.2375 95° East 502 578 35,000  Level Kansas City Center
Wed 01:52:16 PM 40.1183 -93.0581 95° East 502 578 35,000  Level Kansas City Center
Wed 01:53:18 PM 40.1050 -92.8525 95° East 501 577 35,000  Level Kansas City Center
Wed 01:54:20 PM 40.0928 -92.6786 95° East 501 577 35,000  Level Kansas City Center
Wed 01:55:22 PM 40.0803 -92.5044 95° East 501 577 35,000  Level Kansas City Center
Wed 01:56:24 PM 40.0669 -92.3128 95° East 503 579 35,000  Level Kansas City Center
Wed 01:57:26 PM 40.0542 -92.1344 95° East 504 580 35,000  Level Kansas City Center
Wed 01:58:29 PM 40.0361 -91.9197 96° East 502 578 35,000  Level Kansas City Center
Wed 01:59:31 PM 40.0222 -91.7400 96° East 503 579 35,000  Level Kansas City Center
Wed 02:00:33 PM 40.0067 -91.5600 96° East 504 580 35,000  Level Kansas City Center
Wed 02:01:35 PM 39.9925 -91.3789 96° East 506 582 35,000  Level Kansas City Center
Wed 02:02:37 PM 39.9786 -91.1981 96° East 506 582 35,000  Level Kansas City Center
Wed 02:03:39 PM 39.9592 -90.9828 97° East 504 580 35,000  Level Kansas City Center
Wed 02:04:41 PM 39.9453 -90.8206 96° East 503 579 35,000  Level Kansas City Center
Wed 02:05:43 PM 39.9306 -90.6414 96° East 501 577 35,000  Level Kansas City Center
Wed 02:06:45 PM 39.9103 -90.4294 97° East 496 571 35,000  Level Kansas City Center
Wed 02:07:47 PM 39.8944 -90.2533 97° East 493 567 35,000  Level Kansas City Center
Wed 02:08:49 PM 39.8781 -90.0783 97° East 491 565 35,000  Level Kansas City Center
Wed 02:09:51 PM 39.8611 -89.9050 97° East 489 563 35,000  Level Kansas City Center
Wed 02:10:53 PM 39.8444 -89.7328 97° East 487 560 35,000  Level Kansas City Center
Wed 02:11:55 PM 39.8403 -89.5217 91° East 488 562 35,000  Level Kansas City Center
Wed 02:12:57 PM 39.8406 -89.3458 90° East 487 560 35,000  Level Kansas City Center
Wed 02:13:59 PM 39.8422 -89.1711 89° East 486 559 35,000  Level Kansas City Center
Wed 02:15:01 PM 39.8414 -88.9956 90° East 486 559 35,000  Level Kansas City Center
Wed 02:16:03 PM 39.8419 -88.8211 90° East 485 558 35,000  Level Kansas City Center
Wed 02:17:05 PM 39.8408 -88.6464 90° East 486 559 35,000  Level Kansas City Center
Wed 02:18:07 PM 39.8422 -88.4381 89° East 483 556 35,000  Level Kansas City Center
Wed 02:19:09 PM 39.8422 -88.2639 90° East 482 555 35,000  Level Kansas City Center
Wed 02:20:11 PM 39.8392 -88.0844 91° East 479 551 35,000  Level Kansas City Center
Wed 02:21:05 PM 39.8386 -87.9250 90° East 475 547 35,000  Level Indianapolis Center
Wed 02:22:07 PM 39.8364 -87.7542 91° East 474 545 35,000  Level Indianapolis Center
Wed 02:23:09 PM 39.8369 -87.5856 90° East 469 540 35,000  Level Indianapolis Center
Wed 02:24:11 PM 39.8500 -87.4194 84° East 465 535 35,000  Level Indianapolis Center
Wed 02:25:12 PM 39.8583 -87.2536 86° East 461 531 35,000  Level Indianapolis Center
Wed 02:26:14 PM 39.8650 -87.0900 87° East 456 525 35,000  Level Indianapolis Center
Wed 02:27:16 PM 39.8728 -86.9250 86° East 458 527 35,000  Level Indianapolis Center
Wed 02:28:18 PM 39.8825 -86.7261 86° East 459 528 35,000  Level Indianapolis Center
Wed 02:29:20 PM 39.8894 -86.5594 87° East 459 528 35,000  Level Indianapolis Center
Wed 02:30:22 PM 39.8964 -86.3908 87° East 461 531 35,000  Level Indianapolis Center
Wed 02:31:24 PM 39.9044 -86.2214 86° East 460 529 35,000  Level Indianapolis Center
Wed 02:32:25 PM 39.9111 -86.0544 87° East 458 527 35,000  Level Indianapolis Center
Wed 02:33:27 PM 39.9186 -85.8886 87° East 456 525 35,000  Level Indianapolis Center
Wed 02:34:29 PM 39.9256 -85.7247 87° East 454 522 35,000  Level Indianapolis Center
Wed 02:35:31 PM 39.9317 -85.5592 87° East 457 526 35,000  Level Indianapolis Center
Wed 02:36:33 PM 39.9386 -85.3656 87° East 449 517 35,000  Level Indianapolis Center
Wed 02:37:35 PM 39.9456 -85.2039 87° East 448 516 35,000  Level Indianapolis Center
Wed 02:38:37 PM 39.9633 -85.0444 82° East 447 514 35,000  Level Indianapolis Center
Wed 02:39:39 PM 40.0483 -84.9322 45° Northeast 435 501 35,000  Level Indianapolis Center
Wed 02:40:41 PM 40.1756 -84.8950 13° North 428 493 35,000  Level Indianapolis Center
Wed 02:41:42 PM 40.2647 -84.7942 41° Northeast 435 501 35,000  Level Indianapolis Center
Wed 02:42:44 PM 40.2639 -84.6275 90° East 450 518 35,000  Level Indianapolis Center
Wed 02:43:46 PM 40.2556 -84.4611 94° East 454 522 35,000  Level Indianapolis Center
Wed 02:44:48 PM 40.2647 -84.2978 86° East 451 519 35,000  Level Indianapolis Center
Wed 02:45:50 PM 40.3153 -84.1500 66° East 442 509 35,000  Level Indianapolis Center
Wed 02:46:52 PM 40.3658 -84.0022 66° East 440 506 35,000  Level Indianapolis Center
Wed 02:47:54 PM 40.3886 -83.8169 81° East 452 520 35,000  Level Indianapolis Center
Wed 02:48:56 PM 40.3700 -83.6494 98° East 458 527 35,000  Level Indianapolis Center
Wed 02:49:58 PM 40.3508 -83.4825 99° East 457 526 35,000  Level Indianapolis Center
Wed 02:51:00 PM 40.3314 -83.3167 99° East 454 522 35,000  Level Indianapolis Center
Wed 02:52:02 PM 40.3128 -83.1522 98° East 451 519 35,000  Level Indianapolis Center
Wed 02:53:04 PM 40.2936 -82.9881 99° East 450 518 35,000  Level Indianapolis Center
Wed 02:54:06 PM 40.2722 -82.8253 100° East 448 516 35,000  Level Indianapolis Center
Wed 02:55:08 PM 40.2503 -82.6428 99° East 456 525 35,000  Level Indianapolis Center
Wed 02:56:10 PM 40.2325 -82.4947 99° East 455 524 35,000  Level Indianapolis Center
Wed 02:57:12 PM 40.2114 -82.3300 99° East 454 522 35,000  Level Indianapolis Center
Wed 02:58:14 PM 40.1669 -82.1447 107° East 454 522 35,000  Level Indianapolis Center
Wed 02:59:16 PM 40.1253 -81.9844 109° East 458 527 35,000 -48 Level Indianapolis Center
Wed 03:00:18 PM 40.0831 -81.8194 108° East 471 542 34,900  Descending Indianapolis Center
Wed 03:01:20 PM 40.0364 -81.6428 109° East 477 549 35,000 48 Climbing Indianapolis Center
Wed 03:02:22 PM 39.9939 -81.4769 108° East 478 550 35,000  Level Indianapolis Center
Wed 03:03:24 PM 39.9536 -81.3231 109° East 472 543 35,000  Level Indianapolis Center
Wed 03:04:26 PM 39.9108 -81.1594 109° East 474 545 35,000  Level Indianapolis Center
Wed 03:04:57 PM 39.8911 -81.0728 106° East 467 537 35,000  Level Cleveland Center
Wed 03:05:57 PM 39.8478 -80.9131 109° East 467 537 35,000  Level Cleveland Center
Wed 03:06:57 PM 39.8064 -80.7586 109° East 467 537 35,000  Level Cleveland Center
Wed 03:07:57 PM 39.7650 -80.6047 109° East 467 537 35,000  Level Cleveland Center
Wed 03:08:57 PM 39.7211 -80.4456 110° East 462 532 35,000 -250 Level Cleveland Center
Wed 03:09:57 PM 39.6792 -80.2944 110° East 457 526 34,500 -500 Descending Cleveland Center
Wed 03:10:57 PM 39.6369 -80.1436 110° East 452 520 34,000 -250 Descending Cleveland Center
Wed 03:11:57 PM 39.5967 -79.9903 109° East 452 520 34,000 -72 Level Cleveland Center
Wed 03:12:20 PM 39.5775 -79.9264 111° Southeast 452 520 33,900 -1,575 Descending Washington Center
Wed 03:13:17 PM 39.5433 -79.7683 106° East 457 526 31,900 -2,339 Descending Washington Center
Wed 03:14:18 PM 39.5133 -79.6131 104° East 452 520 29,300 -2,311 Descending Washington Center
Wed 03:15:19 PM 39.4869 -79.4611 103° East 440 506 27,200 -2,168 Descending Washington Center
Wed 03:16:17 PM 39.4622 -79.3172 103° East 430 495 25,000 -2,521 Descending Washington Center
Wed 03:17:18 PM 39.4606 -79.1719 91° East 402 463 22,200 -2,508 Descending Washington Center
Wed 03:18:19 PM 39.4667 -79.0272 87° East 397 457 19,900 -2,182 Descending Washington Center
Wed 03:19:19 PM 39.4706 -78.8931 88° East 384 442 17,800 -1,983 Descending Washington Center
Wed 03:20:17 PM 39.4575 -78.7606 97° East 379 436 16,000 -1,311 Descending Washington Center
Wed 03:21:18 PM 39.4378 -78.6308 101° East 369 425 15,200 -934 Descending Washington Center
Wed 03:22:19 PM 39.4219 -78.5144 100° East 356 410 14,100 -1,361 Descending Washington Center
Wed 03:23:17 PM 39.4039 -78.3956 101° East 336 387 12,500 -1,714 Descending Washington Center
Wed 03:24:18 PM 39.3794 -78.2872 106° East 325 374 10,700 -1,240 Descending Washington Center
Wed 03:25:18 PM 39.3075 -78.2311 149° Southeast 284 327 10,000 -893 Descending Washington Center
Wed 03:26:19 PM 39.2375 -78.1936 157° South 278 320 8,900 -1,190 Descending Washington Center
Wed 03:27:19 PM 39.1806 -78.1353 142° Southeast 273 314 7,600 -1,240 Descending Washington Center
Wed 03:28:20 PM 39.2072 -78.0478 69° East 216 249 6,400 -1,210 Descending Washington Center
Wed 03:29:18 PM 39.2339 -77.9683 67° East 229 264 5,200 -712 Descending Washington Center
Wed 03:30:18 PM 39.2442 -77.8722 82° East 251 289 5,000 -100 Descending Washington Center
Wed 03:31:18 PM 39.2583 -77.7817 79° East 258 297 5,000 -207 Level Washington Center
Wed 03:33:41 PM 39.2333 -77.5500 98° East 261 300 4,300 -294 Descending Potomac TRACON
Wed 03:34:42 PM 39.2000 -77.4833 123° Southeast 264 304 4,000 -397 Descending Potomac TRACON
Wed 03:35:42 PM 39.1333 -77.4500 159° South 241 277 3,500 -500 Descending Potomac TRACON

Login

Don't have an account? Register now (free) for customized features, flight alerts, and more!